Terminal Aerodrome Forecast
Issued by NWS Billings, MT

Home | Current Version | Previous Version | Text Only | Print | Product List | Glossary Off
Versions: 1 2 3 4 5 6 7 8 9 10 11 12 13 14 15 16 17 18 19 20 21 22 23 24 25 26 27 28 29 30 31 32 33 34 35 36 37 38 39 40 41 42

000
FTUS45 KBYZ 262153 AAC
TAFMLS
TAF AMD
KMLS 262153Z 2622/2718 06007KT P6SM VCSH OVC060
      TEMPO 2622/2624 4SM -SN BR FEW009 BKN040
     FM270300 15011KT 5SM -SN BR SCT012 OVC030
     FM270600 15015KT P6SM SCT030 BKN060
     FM271600 20010KT P6SM BKN100 WS012/27040KT=

USA.gov is the U.S. government's official web portal to all federal, state and local government web resources and services.